createdAt,value
2022-12-11T00:02:02.664Z,10.79
2022-12-11T00:04:31.091Z,10.83
2022-12-11T00:06:59.057Z,10.83
2022-12-11T00:09:27.137Z,10.82
2022-12-11T00:11:55.099Z,10.83
2022-12-11T00:14:22.966Z,10.81
2022-12-11T00:16:50.845Z,10.78
2022-12-11T00:19:18.806Z,10.75
2022-12-11T00:21:46.980Z,10.74
2022-12-11T00:24:14.849Z,10.75
2022-12-11T00:26:42.821Z,10.76
2022-12-11T00:29:14.654Z,10.75
2022-12-11T00:31:43.091Z,10.75
2022-12-11T00:34:12.147Z,10.75
2022-12-11T00:36:40.126Z,10.74
2022-12-11T00:39:08.220Z,10.74
2022-12-11T00:41:36.264Z,10.72
2022-12-11T00:44:04.229Z,10.68
2022-12-11T00:46:32.104Z,10.64
2022-12-11T00:49:00.375Z,10.61
2022-12-11T00:51:28.215Z,10.59
2022-12-11T00:53:56.928Z,10.58
2022-12-11T00:56:25.511Z,10.58
2022-12-11T00:58:53.383Z,10.58
2022-12-11T01:01:22.756Z,10.58
2022-12-11T01:03:51.059Z,10.59
2022-12-11T01:06:20.329Z,10.59
2022-12-11T01:08:48.228Z,10.61
2022-12-11T01:11:16.739Z,10.62
2022-12-11T01:13:44.883Z,10.63
2022-12-11T01:16:14.176Z,10.65
2022-12-11T01:18:42.823Z,10.69
2022-12-11T01:21:12.687Z,10.73
2022-12-11T01:23:40.648Z,10.76
2022-12-11T01:26:10.376Z,10.80
2022-12-11T01:28:39.153Z,10.83
2022-12-11T01:31:14.425Z,10.85
2022-12-11T01:33:42.671Z,10.89
2022-12-11T01:36:11.863Z,10.91
2022-12-11T01:38:40.252Z,10.92
2022-12-11T01:41:08.729Z,10.93
2022-12-11T01:43:55.638Z,10.95
2022-12-11T01:46:23.949Z,10.97
2022-12-11T01:48:52.601Z,10.99
2022-12-11T01:51:20.985Z,11.01
2022-12-11T01:53:51.202Z,11.03
2022-12-11T01:56:19.583Z,11.06
2022-12-11T01:58:52.875Z,11.08
2022-12-11T02:01:34.720Z,11.09
2022-12-11T02:04:03.052Z,11.11
2022-12-11T02:06:38.595Z,11.13
2022-12-11T02:09:09.129Z,11.15
2022-12-11T02:11:46.110Z,11.18
2022-12-11T02:14:20.221Z,11.21
2022-12-11T02:16:55.976Z,11.24
2022-12-11T02:19:26.783Z,11.27
2022-12-11T02:21:56.943Z,11.29
2022-12-11T02:24:47.429Z,11.31
2022-12-11T02:27:34.652Z,11.32
2022-12-11T02:30:02.837Z,11.33
2022-12-11T02:32:35.601Z,11.35
2022-12-11T02:35:19.552Z,11.36
2022-12-11T02:37:49.769Z,11.35
2022-12-11T02:40:22.242Z,11.34
2022-12-11T02:42:51.174Z,11.33
2022-12-11T02:45:19.628Z,11.32
2022-12-11T02:47:48.301Z,11.31
2022-12-11T02:50:18.657Z,11.29
2022-12-11T02:52:48.519Z,11.28
2022-12-11T02:55:17.335Z,11.27
2022-12-11T02:57:48.068Z,11.27
2022-12-11T03:00:16.895Z,11.27
2022-12-11T03:02:45.485Z,11.27
2022-12-11T03:05:14.839Z,11.28
2022-12-11T03:07:43.932Z,11.28
2022-12-11T03:10:14.882Z,11.29
2022-12-11T03:12:50.413Z,11.31
2022-12-11T03:15:24.139Z,11.33
2022-12-11T03:17:54.756Z,11.35
2022-12-11T03:20:38.495Z,11.36
2022-12-11T03:23:09.537Z,11.39
2022-12-11T03:25:47.031Z,11.41
2022-12-11T03:28:30.564Z,11.46
2022-12-11T03:31:03.346Z,11.52
2022-12-11T03:33:36.949Z,11.58
2022-12-11T03:36:11.056Z,11.62
2022-12-11T03:38:46.414Z,11.64
2022-12-11T03:41:15.298Z,11.66
2022-12-11T03:43:44.573Z,11.69
2022-12-11T03:46:13.825Z,11.71
2022-12-11T03:48:43.916Z,11.74
2022-12-11T03:51:11.885Z,11.75
2022-12-11T03:53:39.918Z,11.75
2022-12-11T03:56:09.154Z,11.75
2022-12-11T03:58:37.224Z,11.72
2022-12-11T04:01:08.677Z,11.66
2022-12-11T04:03:36.857Z,11.64
2022-12-11T04:06:04.637Z,11.64
2022-12-11T04:08:32.789Z,11.62
2022-12-11T04:11:21.442Z,11.60
2022-12-11T04:14:12.050Z,11.56
2022-12-11T04:16:39.915Z,11.49
2022-12-11T04:19:27.649Z,11.44
2022-12-11T04:22:14.211Z,11.39
2022-12-11T04:24:42.634Z,11.35
2022-12-11T04:27:10.598Z,11.30
2022-12-11T04:29:38.467Z,11.24
2022-12-11T04:32:06.541Z,11.18
2022-12-11T04:34:34.377Z,11.13
2022-12-11T04:37:02.482Z,11.09
2022-12-11T04:39:30.341Z,11.04
2022-12-11T04:41:58.212Z,10.99
2022-12-11T04:44:26.079Z,10.95
2022-12-11T04:46:53.868Z,10.90
2022-12-11T04:49:21.816Z,10.86
2022-12-11T04:51:49.677Z,10.82
2022-12-11T04:54:17.554Z,10.79
2022-12-11T04:56:45.413Z,10.77
2022-12-11T04:59:13.386Z,10.73
2022-12-11T05:01:41.511Z,10.70
2022-12-11T05:04:09.527Z,10.67
2022-12-11T05:06:37.596Z,10.65
2022-12-11T05:09:05.566Z,10.64
2022-12-11T05:11:33.847Z,10.63
2022-12-11T05:14:01.814Z,10.62
2022-12-11T05:16:29.709Z,10.63
2022-12-11T05:18:57.650Z,10.62
2022-12-11T05:21:27.994Z,10.64
2022-12-11T05:23:59.610Z,10.65
2022-12-11T05:26:27.500Z,10.68
2022-12-11T05:28:55.473Z,10.71
2022-12-11T05:31:25.105Z,10.73
2022-12-11T05:33:53.914Z,10.75
2022-12-11T05:36:29.823Z,10.78
2022-12-11T05:38:58.608Z,10.81
2022-12-11T05:41:28.610Z,10.84
2022-12-11T05:43:56.797Z,10.86
2022-12-11T05:46:26.169Z,10.87
2022-12-11T05:48:55.100Z,10.89
2022-12-11T05:51:23.474Z,10.91
2022-12-11T05:53:52.055Z,10.92
2022-12-11T05:56:21.254Z,10.93
2022-12-11T05:58:49.842Z,10.92
2022-12-11T06:01:40.902Z,10.92
2022-12-11T06:04:10.562Z,10.91
2022-12-11T06:06:38.839Z,10.92
2022-12-11T06:09:07.222Z,10.92
2022-12-11T06:11:35.981Z,10.92
2022-12-11T06:14:04.283Z,10.93
2022-12-11T06:16:32.650Z,10.95
2022-12-11T06:19:00.616Z,10.98
2022-12-11T06:21:30.555Z,11.01
2022-12-11T06:23:59.642Z,11.08
2022-12-11T06:26:28.737Z,11.14
2022-12-11T06:28:56.711Z,11.19
2022-12-11T06:31:24.739Z,11.24
2022-12-11T06:33:52.852Z,11.28
2022-12-11T06:36:22.152Z,11.30
2022-12-11T06:38:50.115Z,11.35
2022-12-11T06:41:18.093Z,11.37
2022-12-11T06:43:45.939Z,11.38
2022-12-11T06:46:14.823Z,11.37
2022-12-11T06:48:43.377Z,11.35
2022-12-11T06:51:12.838Z,11.26
2022-12-11T06:53:41.014Z,11.10
2022-12-11T06:56:10.309Z,10.96
2022-12-11T06:58:38.896Z,10.86
2022-12-11T07:01:14.698Z,10.89
2022-12-11T07:03:43.125Z,10.87
2022-12-11T07:06:11.298Z,10.83
2022-12-11T07:08:39.575Z,10.87
2022-12-11T07:11:09.048Z,10.86
2022-12-11T07:13:37.358Z,10.85
2022-12-11T07:16:10.854Z,10.83
2022-12-11T07:18:42.945Z,10.84
2022-12-11T07:21:12.635Z,10.82
2022-12-11T07:23:41.009Z,10.83
2022-12-11T07:26:10.632Z,10.89
2022-12-11T07:28:39.201Z,10.94
2022-12-11T07:31:11.043Z,10.99
2022-12-11T07:33:39.342Z,11.06
2022-12-11T07:36:09.172Z,11.14
2022-12-11T07:38:37.225Z,11.24
2022-12-11T07:41:06.229Z,11.28
2022-12-11T07:43:35.324Z,11.22
2022-12-11T07:46:04.881Z,11.17
2022-12-11T07:48:35.245Z,11.24
2022-12-11T07:51:15.254Z,11.27
2022-12-11T07:53:45.528Z,11.31
2022-12-11T07:56:13.799Z,11.26
2022-12-11T07:58:42.277Z,11.25
2022-12-11T08:01:18.607Z,11.32
2022-12-11T08:03:46.824Z,11.26
2022-12-11T08:06:15.206Z,11.22
2022-12-11T08:08:43.171Z,11.13
2022-12-11T08:11:13.186Z,11.11
2022-12-11T08:13:41.973Z,11.06
2022-12-11T08:16:13.187Z,11.01
2022-12-11T08:18:41.911Z,11.03
2022-12-11T08:21:11.108Z,11.01
2022-12-11T08:23:39.381Z,10.99
2022-12-11T08:26:08.682Z,10.89
2022-12-11T08:28:37.168Z,10.65
2022-12-11T08:31:06.515Z,10.52
2022-12-11T08:33:35.391Z,10.51
2022-12-11T08:36:07.211Z,10.46
2022-12-11T08:38:35.373Z,10.22
2022-12-11T08:41:13.496Z,10.14
2022-12-11T08:43:41.814Z,10.15
2022-12-11T08:46:10.338Z,10.20
2022-12-11T08:48:39.656Z,10.22
2022-12-11T08:51:08.580Z,10.21
2022-12-11T08:53:36.908Z,9.98
2022-12-11T08:56:06.537Z,10.02
2022-12-11T08:58:34.508Z,9.78
2022-12-11T09:01:09.489Z,9.61
2022-12-11T09:03:38.226Z,9.62
2022-12-11T09:06:07.208Z,9.36
2022-12-11T09:08:35.191Z,9.18
2022-12-11T09:11:13.809Z,9.00
2022-12-11T09:13:42.295Z,8.96
2022-12-11T09:16:11.834Z,8.75
2022-12-11T09:18:40.172Z,8.52
2022-12-11T09:21:13.677Z,8.31
2022-12-11T09:23:41.750Z,8.15
2022-12-11T09:26:11.251Z,8.17
2022-12-11T09:28:45.729Z,8.14
2022-12-11T09:31:15.640Z,7.99
2022-12-11T09:33:44.017Z,7.86
2022-12-11T09:36:12.456Z,7.92
2022-12-11T09:38:40.523Z,8.00
2022-12-11T09:41:17.811Z,7.97
2022-12-11T09:44:12.198Z,8.04
2022-12-11T09:46:40.964Z,8.18
2022-12-11T09:49:25.119Z,7.97
2022-12-11T09:51:58.938Z,7.87
2022-12-11T09:54:27.217Z,7.89
2022-12-11T09:56:55.187Z,7.74
2022-12-11T09:59:41.596Z,7.84
2022-12-11T10:02:18.457Z,7.86
2022-12-11T10:04:59.343Z,7.88
2022-12-11T10:07:33.148Z,7.85
2022-12-11T10:10:01.118Z,7.75
2022-12-11T10:12:29.083Z,7.85
2022-12-11T10:15:00.058Z,7.96
2022-12-11T10:17:30.553Z,8.83
2022-12-11T10:20:03.618Z,9.88
2022-12-11T10:22:32.942Z,11.30
2022-12-11T10:25:13.028Z,11.96
2022-12-11T10:27:41.482Z,12.75
2022-12-11T10:30:15.964Z,13.70
2022-12-11T10:33:02.517Z,13.78
2022-12-11T10:35:39.385Z,13.69
2022-12-11T10:38:16.248Z,14.24
2022-12-11T10:40:45.666Z,14.35
2022-12-11T10:43:13.850Z,14.92
2022-12-11T10:45:50.611Z,15.73
2022-12-11T10:48:18.480Z,15.76
2022-12-11T10:50:55.665Z,15.27
2022-12-11T10:53:24.250Z,15.54
2022-12-11T10:55:53.038Z,16.42
2022-12-11T10:58:23.042Z,16.85
2022-12-11T11:01:00.098Z,16.51
2022-12-11T11:03:28.725Z,15.40
2022-12-11T11:06:22.564Z,15.64
2022-12-11T11:08:58.148Z,15.23
2022-12-11T11:11:34.330Z,15.32
2022-12-11T11:14:18.865Z,14.64
2022-12-11T11:16:48.168Z,14.16
2022-12-11T11:19:19.211Z,14.13
2022-12-11T11:21:49.430Z,14.59
2022-12-11T11:24:23.340Z,14.47
2022-12-11T11:27:20.668Z,14.41
2022-12-11T11:29:39.355Z,14.11
2022-12-11T11:32:16.027Z,13.31
2022-12-11T11:34:43.890Z,13.04
2022-12-11T11:37:38.585Z,12.81
2022-12-11T11:40:11.677Z,12.28
2022-12-11T11:42:48.554Z,12.58
2022-12-11T11:45:20.729Z,12.73
2022-12-11T11:47:53.818Z,12.07
2022-12-11T11:50:28.543Z,11.82
2022-12-11T11:52:56.427Z,11.42
2022-12-11T11:55:33.282Z,11.06
2022-12-11T11:58:03.919Z,11.02
2022-12-11T12:00:33.829Z,10.63
2022-12-11T12:03:04.577Z,10.39
2022-12-11T12:05:35.606Z,10.17
2022-12-11T12:08:12.629Z,10.03
2022-12-11T12:10:51.923Z,9.97
2022-12-11T12:13:49.133Z,9.84
2022-12-11T12:16:52.095Z,9.64
2022-12-11T12:19:38.385Z,9.34
2022-12-11T12:22:29.896Z,9.26
2022-12-11T12:25:03.193Z,9.21
2022-12-11T12:27:52.720Z,9.55
2022-12-11T12:30:23.445Z,10.25
2022-12-11T12:32:51.881Z,10.24
2022-12-11T12:35:35.941Z,10.27
2022-12-11T12:38:21.914Z,10.19
2022-12-11T12:41:05.139Z,9.98
2022-12-11T12:43:36.279Z,9.47
2022-12-11T12:46:23.197Z,9.28
2022-12-11T12:48:51.892Z,8.94
2022-12-11T12:51:20.158Z,8.72
2022-12-11T12:53:52.637Z,8.46
2022-12-11T12:56:21.830Z,8.33
2022-12-11T12:58:49.697Z,8.30
2022-12-11T13:01:25.588Z,8.29
2022-12-11T13:03:58.335Z,8.29
2022-12-11T13:06:42.690Z,8.12
2022-12-11T13:09:14.042Z,8.12
2022-12-11T13:11:41.903Z,8.13
2022-12-11T13:14:15.608Z,8.07
2022-12-11T13:16:44.670Z,8.04
2022-12-11T13:19:25.679Z,7.97
2022-12-11T13:22:16.527Z,7.87
2022-12-11T13:24:48.854Z,7.86
2022-12-11T13:27:31.798Z,7.86
2022-12-11T13:30:06.052Z,7.91
2022-12-11T13:32:34.780Z,7.95
2022-12-11T13:35:05.720Z,8.01
2022-12-11T13:37:36.173Z,8.04
2022-12-11T13:40:08.524Z,8.01
2022-12-11T13:42:40.892Z,7.98
2022-12-11T13:45:17.987Z,7.97
2022-12-11T13:47:46.864Z,7.90
2022-12-11T13:50:19.648Z,7.86
2022-12-11T13:52:54.513Z,7.79
2022-12-11T13:55:27.234Z,7.71
2022-12-11T13:57:55.135Z,7.65
2022-12-11T14:00:24.504Z,7.60
2022-12-11T14:02:54.345Z,7.56
2022-12-11T14:05:22.786Z,7.54
2022-12-11T14:07:55.550Z,7.51
2022-12-11T14:10:27.845Z,7.45
2022-12-11T14:13:17.966Z,7.38
2022-12-11T14:15:46.455Z,7.33
2022-12-11T14:18:23.532Z,7.29
2022-12-11T14:21:02.253Z,7.25
2022-12-11T14:23:31.964Z,7.20
2022-12-11T14:26:01.526Z,7.16
2022-12-11T14:28:36.249Z,7.13
2022-12-11T14:31:05.880Z,7.09
2022-12-11T14:33:45.560Z,7.06
2022-12-11T14:36:15.670Z,7.03
2022-12-11T14:38:46.640Z,7.00
2022-12-11T14:41:24.644Z,7.00
2022-12-11T14:43:55.039Z,6.99
2022-12-11T14:46:46.372Z,6.99
2022-12-11T14:49:49.656Z,6.97
2022-12-11T14:52:24.076Z,6.93
2022-12-11T14:55:07.901Z,6.88
2022-12-11T14:57:36.197Z,6.85
2022-12-11T15:00:05.229Z,6.81
2022-12-11T15:02:34.853Z,6.77
2022-12-11T15:05:03.377Z,6.73
2022-12-11T15:07:32.284Z,6.69
2022-12-11T15:10:00.248Z,6.67
2022-12-11T15:12:28.258Z,6.62
2022-12-11T15:15:01.043Z,6.57
2022-12-11T15:17:31.318Z,6.55
2022-12-11T15:20:09.968Z,6.50
2022-12-11T15:22:38.420Z,6.44
2022-12-11T15:25:06.596Z,6.41
2022-12-11T15:27:38.769Z,6.36
2022-12-11T15:30:16.059Z,6.34
2022-12-11T15:32:44.027Z,6.33
2022-12-11T15:35:25.814Z,6.31
2022-12-11T15:37:57.777Z,6.28
2022-12-11T15:40:27.084Z,6.24
2022-12-11T15:42:55.663Z,6.23
2022-12-11T15:45:25.478Z,6.21
2022-12-11T15:47:53.549Z,6.20
2022-12-11T15:50:24.364Z,6.15
2022-12-11T15:52:53.271Z,6.09
2022-12-11T15:55:22.497Z,6.07
2022-12-11T15:57:55.353Z,6.04
2022-12-11T16:00:24.246Z,5.99
2022-12-11T16:02:52.349Z,5.96
2022-12-11T16:05:22.648Z,5.93
2022-12-11T16:07:55.052Z,5.92
2022-12-11T16:10:23.097Z,5.89
2022-12-11T16:12:51.060Z,5.84
2022-12-11T16:15:23.539Z,5.82
2022-12-11T16:17:59.593Z,5.81
2022-12-11T16:20:27.767Z,5.78
2022-12-11T16:22:55.745Z,5.78
2022-12-11T16:25:24.009Z,5.77
2022-12-11T16:27:51.921Z,5.76
2022-12-11T16:30:20.067Z,5.75
2022-12-11T16:32:48.131Z,5.75
2022-12-11T16:35:16.192Z,5.74
2022-12-11T16:37:44.996Z,5.72
2022-12-11T16:40:14.692Z,5.71
2022-12-11T16:42:42.782Z,5.69
2022-12-11T16:45:12.921Z,5.68
2022-12-11T16:47:41.030Z,5.69
2022-12-11T16:50:09.419Z,5.68
2022-12-11T16:52:37.416Z,5.64
2022-12-11T16:55:05.580Z,5.62
2022-12-11T16:57:33.653Z,5.62
2022-12-11T17:00:02.055Z,5.61
2022-12-11T17:02:30.061Z,5.59
2022-12-11T17:04:58.176Z,5.57
2022-12-11T17:07:26.459Z,5.57
2022-12-11T17:09:54.267Z,5.56
2022-12-11T17:12:27.725Z,5.56
2022-12-11T17:14:56.512Z,5.54
2022-12-11T17:17:24.990Z,5.53
2022-12-11T17:19:53.030Z,5.53
2022-12-11T17:22:21.031Z,5.51
2022-12-11T17:24:49.706Z,5.50
2022-12-11T17:27:17.584Z,5.48
2022-12-11T17:29:45.860Z,5.47
2022-12-11T17:32:14.031Z,5.45
2022-12-11T17:34:41.827Z,5.42
2022-12-11T17:37:09.973Z,5.40
2022-12-11T17:39:38.146Z,5.40
2022-12-11T17:42:06.524Z,5.40
2022-12-11T17:44:34.800Z,5.40
2022-12-11T17:47:07.510Z,5.38
2022-12-11T17:49:39.579Z,5.33
2022-12-11T17:52:07.930Z,5.28
2022-12-11T17:54:35.900Z,5.24
2022-12-11T17:57:04.080Z,5.22
2022-12-11T17:59:32.150Z,5.19
2022-12-11T18:02:00.170Z,5.15
2022-12-11T18:04:28.287Z,5.12
2022-12-11T18:06:56.259Z,5.10
2022-12-11T18:09:24.327Z,5.09
2022-12-11T18:11:52.297Z,5.06
2022-12-11T18:14:20.364Z,5.03
2022-12-11T18:16:48.650Z,5.01
2022-12-11T18:19:17.023Z,4.97
2022-12-11T18:21:46.021Z,4.95
2022-12-11T18:24:14.201Z,4.94
2022-12-11T18:26:43.087Z,4.90
2022-12-11T18:29:11.467Z,4.87
2022-12-11T18:31:42.660Z,4.86
2022-12-11T18:34:11.192Z,4.85
2022-12-11T18:36:40.905Z,4.86
2022-12-11T18:39:09.074Z,4.85
2022-12-11T18:41:37.146Z,4.82
2022-12-11T18:44:09.571Z,4.80
2022-12-11T18:46:39.624Z,4.74
2022-12-11T18:49:07.711Z,4.67
2022-12-11T18:51:36.203Z,4.62
2022-12-11T18:54:04.121Z,4.57
2022-12-11T18:56:32.026Z,4.48
2022-12-11T18:58:59.881Z,4.44
2022-12-11T19:01:33.309Z,4.43
2022-12-11T19:04:06.495Z,4.41
2022-12-11T19:06:37.125Z,4.37
2022-12-11T19:09:06.411Z,4.33
2022-12-11T19:11:35.255Z,4.24
2022-12-11T19:14:05.327Z,4.20
2022-12-11T19:16:34.765Z,4.19
2022-12-11T19:19:07.508Z,4.12
2022-12-11T19:21:37.738Z,4.08
2022-12-11T19:24:07.326Z,4.03
2022-12-11T19:26:35.312Z,3.96
2022-12-11T19:29:03.793Z,3.88
2022-12-11T19:31:32.340Z,3.79
2022-12-11T19:34:01.388Z,3.72
2022-12-11T19:36:29.857Z,3.64
2022-12-11T19:39:01.525Z,3.58
2022-12-11T19:41:30.912Z,3.53
2022-12-11T19:43:59.392Z,3.44
2022-12-11T19:46:28.246Z,3.36
2022-12-11T19:48:57.341Z,3.37
2022-12-11T19:51:28.519Z,3.36
2022-12-11T19:53:56.493Z,3.35
2022-12-11T19:56:24.385Z,3.38
2022-12-11T19:58:52.433Z,3.38
2022-12-11T20:01:24.956Z,3.41
2022-12-11T20:03:53.795Z,3.45
2022-12-11T20:06:21.662Z,3.52
2022-12-11T20:08:50.016Z,3.60
2022-12-11T20:11:19.168Z,3.63
2022-12-11T20:13:48.135Z,3.68
2022-12-11T20:16:17.373Z,3.69
2022-12-11T20:18:45.605Z,3.69
2022-12-11T20:21:14.567Z,3.66
2022-12-11T20:23:42.927Z,3.60
2022-12-11T20:26:13.391Z,3.61
2022-12-11T20:28:41.836Z,3.60
2022-12-11T20:31:19.502Z,3.55
2022-12-11T20:33:49.426Z,3.44
2022-12-11T20:36:18.910Z,3.36
2022-12-11T20:38:48.312Z,3.35
2022-12-11T20:41:17.606Z,3.38
2022-12-11T20:43:45.983Z,3.43
2022-12-11T20:46:15.162Z,3.46
2022-12-11T20:48:44.087Z,3.43
2022-12-11T20:51:12.757Z,3.40
2022-12-11T20:53:41.754Z,3.39
2022-12-11T20:56:13.923Z,3.41
2022-12-11T20:58:42.405Z,3.44
2022-12-11T21:01:17.470Z,3.41
2022-12-11T21:03:45.611Z,3.45
2022-12-11T21:06:22.910Z,3.43
2022-12-11T21:08:50.868Z,3.34
2022-12-11T21:11:19.049Z,3.30
2022-12-11T21:13:47.326Z,3.23
2022-12-11T21:16:15.836Z,3.19
2022-12-11T21:18:44.488Z,3.16
2022-12-11T21:21:12.669Z,3.11
2022-12-11T21:23:40.631Z,3.08
2022-12-11T21:26:08.607Z,3.10
2022-12-11T21:28:36.449Z,3.11
2022-12-11T21:31:06.794Z,3.13
2022-12-11T21:33:35.273Z,3.16
2022-12-11T21:36:04.069Z,3.19
2022-12-11T21:38:32.038Z,3.22
2022-12-11T21:41:10.560Z,3.24
2022-12-11T21:43:54.585Z,3.26
2022-12-11T21:46:27.970Z,3.27
2022-12-11T21:48:56.064Z,3.26
2022-12-11T21:51:28.608Z,3.20
2022-12-11T21:53:58.984Z,3.11
2022-12-11T21:56:28.061Z,3.10
2022-12-11T21:58:56.132Z,3.08
2022-12-11T22:01:29.265Z,3.05
2022-12-11T22:03:57.910Z,3.04
2022-12-11T22:06:25.780Z,3.04
2022-12-11T22:08:53.846Z,2.99
2022-12-11T22:11:23.963Z,2.95
2022-12-11T22:13:52.038Z,2.86
2022-12-11T22:16:21.175Z,2.87
2022-12-11T22:18:49.531Z,2.85
2022-12-11T22:21:18.060Z,2.85
2022-12-11T22:23:46.601Z,2.83
2022-12-11T22:26:19.245Z,2.80
2022-12-11T22:28:47.085Z,2.82
2022-12-11T22:31:16.962Z,2.86
2022-12-11T22:33:45.117Z,2.89
2022-12-11T22:36:12.970Z,2.93
2022-12-11T22:38:40.846Z,2.95
2022-12-11T22:41:16.356Z,2.95
2022-12-11T22:43:48.459Z,2.95
2022-12-11T22:46:17.651Z,2.95
2022-12-11T22:48:45.670Z,2.95
2022-12-11T22:51:14.006Z,2.96
2022-12-11T22:53:42.141Z,2.97
2022-12-11T22:56:11.030Z,2.91
2022-12-11T22:58:39.453Z,2.89
2022-12-11T23:01:11.520Z,2.87
2022-12-11T23:03:39.508Z,2.86
2022-12-11T23:06:08.887Z,2.86
2022-12-11T23:08:37.373Z,2.84
2022-12-11T23:11:11.591Z,2.81
2022-12-11T23:13:40.681Z,2.80
2022-12-11T23:16:09.884Z,2.80
2022-12-11T23:18:38.565Z,2.78
2022-12-11T23:21:08.280Z,2.73
2022-12-11T23:23:38.544Z,2.65
2022-12-11T23:26:07.596Z,2.64
2022-12-11T23:28:36.266Z,2.53
2022-12-11T23:31:04.710Z,2.52
2022-12-11T23:33:32.834Z,2.45
2022-12-11T23:36:00.816Z,2.46
2022-12-11T23:38:28.772Z,2.41
2022-12-11T23:40:58.494Z,2.41
2022-12-11T23:43:26.861Z,2.44
2022-12-11T23:45:54.736Z,2.50
2022-12-11T23:48:22.805Z,2.58
2022-12-11T23:50:50.983Z,2.61
2022-12-11T23:53:19.157Z,2.64
2022-12-11T23:55:47.734Z,2.68
2022-12-11T23:58:15.709Z,2.66
